createdAt,value
2018-05-23T00:00:56.780Z,10.37
2018-05-23T00:03:25.078Z,9.63
2018-05-23T00:05:53.168Z,9.93
2018-05-23T00:08:21.861Z,10.57
2018-05-23T00:10:49.403Z,10.03
2018-05-23T00:13:16.921Z,10.77
2018-05-23T00:15:44.901Z,10.13
2018-05-23T00:18:13.648Z,12.23
2018-05-23T00:20:41.619Z,12.03
2018-05-23T00:23:09.149Z,11.77
2018-05-23T00:25:37.708Z,11.10
2018-05-23T00:28:05.981Z,10.40
2018-05-23T00:30:34.542Z,10.97
2018-05-23T00:33:02.517Z,10.03
2018-05-23T00:35:30.047Z,9.77
2018-05-23T00:37:57.552Z,10.47
2018-05-23T00:40:25.925Z,10.67
2018-05-23T00:42:54.209Z,8.27
2018-05-23T00:45:22.472Z,8.77
2018-05-23T00:47:51.732Z,9.40
2018-05-23T00:50:19.276Z,9.73
2018-05-23T00:52:47.962Z,9.40
2018-05-23T00:55:27.433Z,8.87
2018-05-23T00:57:54.931Z,8.83
2018-05-23T01:00:23.238Z,9.53
2018-05-23T01:02:50.753Z,9.40
2018-05-23T01:05:18.844Z,9.73
2018-05-23T01:07:47.864Z,10.03
2018-05-23T01:10:15.388Z,10.23
2018-05-23T01:12:43.687Z,11.00
2018-05-23T01:15:11.807Z,10.70
2018-05-23T01:17:39.315Z,10.77
2018-05-23T01:20:06.848Z,11.97
2018-05-23T01:22:35.114Z,12.10
2018-05-23T01:25:02.635Z,13.27
2018-05-23T01:27:30.141Z,13.43
2018-05-23T01:29:58.462Z,13.43
2018-05-23T01:32:26.182Z,13.97
2018-05-23T01:34:54.119Z,14.60
2018-05-23T01:37:21.660Z,15.23
2018-05-23T01:39:49.158Z,16.07
2018-05-23T01:42:16.659Z,15.47
2018-05-23T01:44:44.195Z,15.23
2018-05-23T01:47:12.494Z,16.13
2018-05-23T01:49:40.024Z,12.40
2018-05-23T01:52:07.532Z,12.10
2018-05-23T01:54:35.065Z,11.80
2018-05-23T01:57:02.573Z,13.57
2018-05-23T01:59:30.105Z,13.37
2018-05-23T02:01:58.324Z,13.20
2018-05-23T02:04:25.833Z,13.20
2018-05-23T02:06:53.344Z,12.63
2018-05-23T02:09:21.815Z,16.87
2018-05-23T02:11:49.326Z,17.23
2018-05-23T02:14:17.185Z,19.10
2018-05-23T02:16:44.691Z,17.90
2018-05-23T02:19:12.199Z,17.40
2018-05-23T02:21:40.961Z,15.07
2018-05-23T02:24:08.480Z,16.20
2018-05-23T02:26:36.014Z,15.63
2018-05-23T02:29:03.975Z,14.40
2018-05-23T02:31:32.242Z,16.53
2018-05-23T02:34:00.560Z,16.67
2018-05-23T02:36:28.062Z,15.83
2018-05-23T02:38:56.047Z,16.33
2018-05-23T02:41:24.324Z,16.37
2018-05-23T02:43:52.601Z,15.07
2018-05-23T02:46:20.892Z,15.53
2018-05-23T02:48:48.889Z,14.53
2018-05-23T02:51:16.416Z,14.53
2018-05-23T02:53:44.692Z,13.33
2018-05-23T02:56:12.967Z,14.53
2018-05-23T02:58:41.268Z,15.13
2018-05-23T03:01:09.044Z,14.43
2018-05-23T03:03:36.575Z,13.77
2018-05-23T03:06:04.100Z,14.57
2018-05-23T03:08:31.618Z,14.93
2018-05-23T03:10:59.590Z,14.80
2018-05-23T03:13:27.103Z,14.80
2018-05-23T03:15:56.018Z,14.10
2018-05-23T03:18:23.535Z,12.43
2018-05-23T03:20:51.036Z,13.17
2018-05-23T03:23:19.165Z,12.60
2018-05-23T03:25:46.666Z,12.37
2018-05-23T03:28:14.695Z,13.70
2018-05-23T03:30:42.191Z,15.07
2018-05-23T03:33:09.704Z,15.33
2018-05-23T03:35:37.223Z,14.13
2018-05-23T03:38:05.040Z,13.10
2018-05-23T03:40:33.371Z,14.50
2018-05-23T03:43:01.077Z,13.70
2018-05-23T03:45:29.021Z,14.60
2018-05-23T03:47:57.233Z,13.70
2018-05-23T03:50:24.734Z,14.50
2018-05-23T03:52:52.272Z,12.97
2018-05-23T03:55:21.860Z,13.50
2018-05-23T03:57:50.091Z,14.03
2018-05-23T04:00:30.283Z,13.53
2018-05-23T04:03:09.850Z,13.10
2018-05-23T04:05:49.939Z,13.57
2018-05-23T04:08:17.858Z,12.60
2018-05-23T04:10:46.148Z,13.17
2018-05-23T04:13:14.439Z,13.53
2018-05-23T04:15:43.060Z,12.67
2018-05-23T04:18:11.034Z,13.30
2018-05-23T04:20:38.577Z,11.80
2018-05-23T04:23:06.090Z,11.30
2018-05-23T04:25:33.588Z,10.53
2018-05-23T04:28:01.123Z,11.07
2018-05-23T04:30:29.399Z,10.97
2018-05-23T04:32:57.881Z,10.43
2018-05-23T04:35:26.147Z,11.17
2018-05-23T04:37:57.176Z,9.80
2018-05-23T04:40:27.093Z,11.67
2018-05-23T04:42:55.380Z,10.97
2018-05-23T04:45:24.129Z,12.73
2018-05-23T04:47:51.632Z,14.83
2018-05-23T04:50:19.924Z,13.20
2018-05-23T04:52:48.195Z,12.90
2018-05-23T04:55:16.465Z,12.37
2018-05-23T04:57:44.757Z,12.17
2018-05-23T05:00:12.252Z,12.47
2018-05-23T05:02:40.244Z,12.73
2018-05-23T05:05:07.743Z,11.20
2018-05-23T05:07:35.239Z,11.07
2018-05-23T05:10:03.449Z,12.47
2018-05-23T05:12:31.828Z,13.10
2018-05-23T05:14:59.382Z,12.13
2018-05-23T05:17:26.881Z,12.27
2018-05-23T05:19:54.971Z,12.07
2018-05-23T05:22:22.496Z,10.77
2018-05-23T05:24:50.785Z,10.57
2018-05-23T05:27:18.313Z,10.57
2018-05-23T05:29:46.137Z,11.77
2018-05-23T05:32:14.096Z,12.20
2018-05-23T05:34:41.637Z,10.77
2018-05-23T05:37:10.487Z,11.70
2018-05-23T05:39:38.007Z,10.80
2018-05-23T05:42:05.506Z,11.93
2018-05-23T05:44:33.011Z,11.57
2018-05-23T05:47:00.817Z,10.97
2018-05-23T05:49:28.248Z,11.00
2018-05-23T05:51:55.768Z,11.43
2018-05-23T05:54:24.039Z,12.67
2018-05-23T05:56:51.544Z,12.53
2018-05-23T05:59:19.082Z,12.57
2018-05-23T06:01:46.580Z,13.40
2018-05-23T06:04:14.106Z,13.20
2018-05-23T06:06:41.608Z,13.63
2018-05-23T06:09:09.372Z,12.60
2018-05-23T06:11:38.154Z,12.80
2018-05-23T06:14:05.660Z,14.03
2018-05-23T06:16:34.069Z,13.83
2018-05-23T06:19:02.024Z,14.47
2018-05-23T06:21:29.529Z,16.10
2018-05-23T06:23:57.517Z,15.03
2018-05-23T06:26:25.015Z,15.27
2018-05-23T06:28:52.531Z,17.57
2018-05-23T06:31:21.823Z,17.20
2018-05-23T06:33:49.316Z,16.50
2018-05-23T06:36:17.603Z,17.07
2018-05-23T06:38:45.896Z,19.20
2018-05-23T06:41:13.424Z,19.13
2018-05-23T06:43:41.735Z,19.33
2018-05-23T06:46:09.971Z,17.17
2018-05-23T06:48:39.072Z,16.20
2018-05-23T06:51:07.339Z,16.70
2018-05-23T06:53:34.867Z,16.47
2018-05-23T06:56:02.365Z,15.67
2018-05-23T06:58:30.627Z,18.03
2018-05-23T07:00:58.147Z,17.17
2018-05-23T07:03:26.219Z,17.50
2018-05-23T07:05:53.790Z,14.70
2018-05-23T07:08:21.256Z,17.90
2018-05-23T07:10:49.676Z,15.97
2018-05-23T07:13:19.346Z,14.87
2018-05-23T07:15:46.831Z,13.70
2018-05-23T07:18:14.360Z,13.40
2018-05-23T07:20:41.863Z,13.57
2018-05-23T07:23:10.151Z,11.83
2018-05-23T07:25:37.675Z,12.97
2018-05-23T07:28:05.174Z,12.10
2018-05-23T07:30:32.699Z,10.07
2018-05-23T07:33:00.899Z,9.93
2018-05-23T07:35:29.159Z,11.70
2018-05-23T07:37:56.682Z,10.50
2018-05-23T07:40:24.193Z,10.23
2018-05-23T07:42:52.819Z,10.20
2018-05-23T07:45:20.319Z,10.27
2018-05-23T07:47:47.816Z,11.00
2018-05-23T07:50:15.331Z,13.43
2018-05-23T07:52:43.040Z,12.80
2018-05-23T07:55:10.565Z,12.67
2018-05-23T07:57:38.840Z,13.60
2018-05-23T08:00:06.363Z,16.27
2018-05-23T08:02:33.899Z,15.33
2018-05-23T08:05:01.400Z,17.50
2018-05-23T08:07:28.932Z,16.80
2018-05-23T08:09:56.423Z,15.87
2018-05-23T08:12:23.915Z,16.37
2018-05-23T08:14:52.191Z,15.40
2018-05-23T08:17:20.455Z,14.43
2018-05-23T08:19:49.551Z,15.40
2018-05-23T08:22:17.810Z,15.50
2018-05-23T08:24:45.327Z,16.50
2018-05-23T08:27:12.825Z,14.13
2018-05-23T08:29:40.385Z,13.60
2018-05-23T08:32:07.871Z,15.10
2018-05-23T08:34:36.133Z,13.57
2018-05-23T08:37:04.425Z,13.10
2018-05-23T08:39:32.696Z,12.10
2018-05-23T08:42:00.976Z,11.97
2018-05-23T08:44:29.261Z,10.63
2018-05-23T08:46:57.519Z,10.67
2018-05-23T08:49:26.757Z,11.83
2018-05-23T08:51:54.251Z,10.67
2018-05-23T08:54:21.748Z,10.37
2018-05-23T08:56:50.044Z,9.63
2018-05-23T08:59:17.877Z,8.83
2018-05-23T09:01:45.407Z,9.23
2018-05-23T09:04:13.014Z,9.63
2018-05-23T09:06:40.520Z,9.67
2018-05-23T09:09:08.045Z,10.53
2018-05-23T09:11:35.540Z,10.10
2018-05-23T09:14:03.056Z,10.40
2018-05-23T09:16:30.551Z,10.93
2018-05-23T09:18:58.047Z,11.23
2018-05-23T09:21:25.565Z,9.87
2018-05-23T09:23:53.056Z,8.20
2018-05-23T09:26:20.581Z,7.47
2018-05-23T09:28:48.075Z,8.03
2018-05-23T09:31:15.566Z,8.17
2018-05-23T09:33:44.680Z,8.47
2018-05-23T09:36:12.179Z,8.63
2018-05-23T09:38:39.691Z,8.10
2018-05-23T09:41:07.187Z,8.33
2018-05-23T09:43:34.679Z,8.10
2018-05-23T09:46:02.955Z,7.60
2018-05-23T09:48:31.702Z,6.73
2018-05-23T09:50:59.800Z,7.27
2018-05-23T09:53:27.300Z,7.30
2018-05-23T09:55:55.384Z,7.20
2018-05-23T09:58:22.899Z,7.33
2018-05-23T10:00:51.177Z,7.40
2018-05-23T10:03:18.691Z,6.07
2018-05-23T10:05:46.179Z,6.40
2018-05-23T10:08:13.671Z,5.83
2018-05-23T10:10:41.963Z,5.87
2018-05-23T10:13:09.455Z,6.07
2018-05-23T10:15:36.967Z,5.93
2018-05-23T10:18:05.222Z,6.07
2018-05-23T10:20:32.711Z,6.43
2018-05-23T10:23:01.645Z,6.00
2018-05-23T10:25:29.134Z,5.80
2018-05-23T10:27:56.652Z,5.50
2018-05-23T10:30:24.579Z,4.93
2018-05-23T10:32:52.832Z,5.47
2018-05-23T10:35:20.344Z,5.77
2018-05-23T10:37:47.877Z,4.90
2018-05-23T10:40:15.363Z,5.27
2018-05-23T10:42:42.852Z,5.23
2018-05-23T10:45:10.344Z,4.53
2018-05-23T10:47:38.620Z,5.00
2018-05-23T10:50:06.873Z,4.57
2018-05-23T10:52:34.403Z,5.17
2018-05-23T10:55:01.902Z,5.27
2018-05-23T10:57:29.391Z,5.30
2018-05-23T10:59:56.904Z,5.10
2018-05-23T11:02:24.403Z,4.70
2018-05-23T11:04:52.689Z,4.87
2018-05-23T11:07:20.180Z,5.30
2018-05-23T11:09:47.668Z,5.07
2018-05-23T11:12:15.961Z,4.93
2018-05-23T11:14:44.247Z,5.60
2018-05-23T11:17:11.714Z,4.97
2018-05-23T11:19:39.235Z,4.83
2018-05-23T11:22:06.723Z,5.10
2018-05-23T11:24:34.971Z,5.33
2018-05-23T11:27:03.145Z,5.00
2018-05-23T11:29:30.639Z,4.87
2018-05-23T11:31:58.129Z,4.87
2018-05-23T11:34:25.866Z,5.00
2018-05-23T11:36:53.368Z,4.40
2018-05-23T11:39:20.860Z,5.20
2018-05-23T11:41:49.136Z,4.70
2018-05-23T11:44:17.392Z,4.87
2018-05-23T11:46:44.968Z,5.00
2018-05-23T11:49:12.411Z,4.63
2018-05-23T11:51:39.916Z,4.67
2018-05-23T11:54:07.439Z,4.37
2018-05-23T11:56:34.930Z,4.57
2018-05-23T11:59:02.449Z,4.57
2018-05-23T12:01:29.936Z,4.50
2018-05-23T12:03:58.195Z,4.13
2018-05-23T12:06:25.707Z,4.30
2018-05-23T12:08:53.766Z,4.60
2018-05-23T12:11:21.280Z,3.90
2018-05-23T12:13:48.773Z,3.60
2018-05-23T12:16:16.267Z,4.20
2018-05-23T12:18:43.784Z,3.95
2018-05-23T12:21:11.541Z,4.37
2018-05-23T12:23:39.832Z,3.95
2018-05-23T12:26:07.326Z,3.90
2018-05-23T12:28:34.823Z,3.65
2018-05-23T12:31:04.071Z,4.22
2018-05-23T12:33:32.009Z,4.30
2018-05-23T12:35:59.528Z,3.80
2018-05-23T12:38:27.029Z,3.67
2018-05-23T12:40:54.534Z,3.65
2018-05-23T12:43:22.072Z,4.07
2018-05-23T12:45:49.558Z,3.75
2018-05-23T12:48:17.072Z,3.58
2018-05-23T12:50:44.575Z,3.80
2018-05-23T12:53:12.066Z,4.33
2018-05-23T12:55:40.365Z,3.53
2018-05-23T12:58:07.866Z,3.70
2018-05-23T13:00:37.101Z,3.60
2018-05-23T13:03:05.357Z,3.83
2018-05-23T13:05:32.846Z,3.70
2018-05-23T13:08:01.141Z,3.77
2018-05-23T13:10:28.628Z,3.87
2018-05-23T13:12:56.142Z,3.87
2018-05-23T13:15:24.395Z,4.20
2018-05-23T13:17:51.974Z,3.60
2018-05-23T13:20:19.428Z,4.00
2018-05-23T13:22:47.684Z,3.73
2018-05-23T13:25:15.195Z,4.10
2018-05-23T13:27:43.064Z,4.40
2018-05-23T13:30:10.567Z,3.87
2018-05-23T13:32:38.860Z,4.20
2018-05-23T13:35:07.936Z,3.80
2018-05-23T13:37:35.448Z,4.10
2018-05-23T13:40:03.396Z,3.87
2018-05-23T13:42:31.647Z,4.03
2018-05-23T13:44:59.862Z,3.90
2018-05-23T13:47:27.347Z,4.30
2018-05-23T13:49:54.874Z,3.97
2018-05-23T13:52:22.867Z,4.03
2018-05-23T13:54:50.358Z,4.50
2018-05-23T13:57:17.878Z,4.33
2018-05-23T13:59:45.364Z,4.40
2018-05-23T14:02:12.887Z,3.93
2018-05-23T14:04:40.379Z,4.40
2018-05-23T14:07:07.868Z,4.30
2018-05-23T14:09:35.391Z,4.07
2018-05-23T14:12:02.888Z,4.13
2018-05-23T14:14:30.833Z,4.50
2018-05-23T14:16:58.330Z,4.30
2018-05-23T14:19:27.070Z,4.20
2018-05-23T14:21:54.556Z,3.70
2018-05-23T14:24:24.666Z,4.27
2018-05-23T14:26:52.179Z,4.47
2018-05-23T14:29:19.669Z,4.83
2018-05-23T14:31:47.164Z,4.83
2018-05-23T14:34:15.445Z,4.40
2018-05-23T14:36:43.699Z,5.30
2018-05-23T14:39:11.207Z,4.70
2018-05-23T14:41:38.699Z,4.70
2018-05-23T14:44:06.196Z,4.63
2018-05-23T14:46:34.477Z,4.73
2018-05-23T14:49:02.735Z,4.27
2018-05-23T14:51:30.252Z,4.53
2018-05-23T14:53:57.739Z,4.87
2018-05-23T14:56:25.230Z,4.73
2018-05-23T14:58:53.507Z,5.10
2018-05-23T15:01:21.771Z,5.00
2018-05-23T15:03:50.055Z,5.00
2018-05-23T15:06:18.313Z,5.13
2018-05-23T15:08:45.799Z,5.20
2018-05-23T15:11:13.385Z,4.30
2018-05-23T15:13:40.879Z,3.70
2018-05-23T15:16:09.192Z,4.23
2018-05-23T15:18:37.459Z,4.50
2018-05-23T15:21:04.948Z,3.70
2018-05-23T15:23:32.463Z,3.93
2018-05-23T15:25:59.960Z,3.83
2018-05-23T15:28:28.179Z,4.00
2018-05-23T15:30:55.663Z,3.70
2018-05-23T15:33:23.153Z,3.80
2018-05-23T15:35:50.671Z,3.33
2018-05-23T15:38:19.459Z,3.60
2018-05-23T15:40:46.967Z,3.60
2018-05-23T15:43:14.455Z,3.90
2018-05-23T15:45:41.943Z,3.63
2018-05-23T15:48:09.452Z,3.70
2018-05-23T15:50:36.950Z,4.73
2018-05-23T15:53:05.252Z,4.10
2018-05-23T15:55:34.299Z,3.70
2018-05-23T15:58:01.792Z,3.90
2018-05-23T16:00:29.304Z,4.13
2018-05-23T16:02:56.840Z,3.80
2018-05-23T16:05:25.123Z,3.53
2018-05-23T16:07:52.607Z,3.73
2018-05-23T16:10:20.095Z,3.90
2018-05-23T16:12:47.609Z,3.80
2018-05-23T16:15:15.100Z,4.50
2018-05-23T16:17:42.613Z,4.90
2018-05-23T16:20:10.100Z,4.40
2018-05-23T16:22:37.584Z,4.80
2018-05-23T16:25:05.095Z,4.40
2018-05-23T16:27:32.748Z,5.30
2018-05-23T16:30:04.379Z,5.10
2018-05-23T16:32:32.641Z,5.27
2018-05-23T16:35:00.139Z,5.40
2018-05-23T16:37:38.063Z,5.27
2018-05-23T16:40:05.559Z,5.83
2018-05-23T16:42:33.687Z,5.33
2018-05-23T16:45:02.114Z,5.57
2018-05-23T16:47:29.659Z,5.07
2018-05-23T16:49:57.412Z,5.40
2018-05-23T16:52:24.931Z,5.33
2018-05-23T16:54:54.124Z,5.30
2018-05-23T16:57:23.824Z,5.13
2018-05-23T16:59:53.605Z,5.37
2018-05-23T17:02:21.112Z,5.10
2018-05-23T17:04:50.750Z,5.23
2018-05-23T17:07:18.333Z,5.30
2018-05-23T17:09:45.882Z,5.27
2018-05-23T17:12:13.395Z,5.13
2018-05-23T17:14:41.733Z,4.90
2018-05-23T17:17:09.235Z,4.50
2018-05-23T17:19:37.544Z,4.80
2018-05-23T17:22:05.119Z,5.07
2018-05-23T17:24:32.649Z,5.17
2018-05-23T17:27:00.184Z,5.20
2018-05-23T17:29:29.166Z,5.03
2018-05-23T17:31:58.595Z,5.13
2018-05-23T17:34:26.139Z,4.70
2018-05-23T17:36:54.908Z,5.00
2018-05-23T17:39:23.033Z,5.63
2018-05-23T17:41:50.602Z,6.00
2018-05-23T17:44:18.526Z,5.27
2018-05-23T17:46:48.701Z,5.63
2018-05-23T17:49:16.344Z,5.30
2018-05-23T17:51:44.220Z,5.73
2018-05-23T17:54:27.460Z,5.60
2018-05-23T17:56:55.283Z,5.70
2018-05-23T17:59:23.276Z,6.07
2018-05-23T18:01:51.968Z,6.20
2018-05-23T18:04:20.684Z,5.77
2018-05-23T18:06:49.477Z,6.00
2018-05-23T18:09:18.362Z,6.07
2018-05-23T18:11:50.764Z,6.40
2018-05-23T18:14:21.014Z,6.63
2018-05-23T18:16:53.019Z,6.13
2018-05-23T18:19:21.162Z,6.70
2018-05-23T18:21:49.961Z,6.97
2018-05-23T18:24:19.194Z,6.20
2018-05-23T18:29:22.138Z,6.27
2018-05-23T18:31:51.539Z,6.70
2018-05-23T18:34:24.873Z,6.07
2018-05-23T18:36:52.968Z,6.37
2018-05-23T18:39:20.968Z,6.80
2018-05-23T18:41:49.401Z,6.00
2018-05-23T18:44:16.929Z,5.90
2018-05-23T18:46:47.269Z,6.03
2018-05-23T18:49:14.978Z,5.80
2018-05-23T18:51:43.549Z,6.00
2018-05-23T18:54:11.225Z,6.37
2018-05-23T18:56:44.507Z,5.90
2018-05-23T19:01:48.392Z,5.80
2018-05-23T19:04:19.831Z,5.70
2018-05-23T19:06:49.391Z,5.83
2018-05-23T19:09:17.128Z,5.87
2018-05-23T19:11:46.377Z,5.30
2018-05-23T19:14:13.935Z,5.70
2018-05-23T19:16:42.315Z,5.77
2018-05-23T19:19:12.153Z,5.23
2018-05-23T19:21:39.803Z,5.10
2018-05-23T19:24:09.818Z,4.80
2018-05-23T19:26:39.283Z,5.13
2018-05-23T19:29:08.228Z,4.50
2018-05-23T19:31:39.451Z,5.33
2018-05-23T19:34:09.965Z,4.73
2018-05-23T19:36:41.455Z,5.00
2018-05-23T19:39:10.187Z,4.70
2018-05-23T19:41:38.666Z,4.80
2018-05-23T19:44:07.301Z,5.17
2018-05-23T19:46:36.426Z,4.90
2018-05-23T19:49:06.277Z,5.27
2018-05-23T19:51:35.878Z,5.70
2018-05-23T19:54:03.586Z,5.17
2018-05-23T20:05:26.277Z,4.83
2018-05-23T20:23:09.356Z,4.97
2018-05-23T20:25:49.554Z,5.00
2018-05-23T20:28:39.644Z,5.10
2018-05-23T20:31:45.342Z,4.97
2018-05-23T20:38:09.302Z,5.50
2018-05-23T20:49:47.627Z,6.03
2018-05-23T20:52:15.275Z,6.00
2018-05-23T20:54:42.817Z,6.10
2018-05-23T20:57:11.060Z,6.57
2018-05-23T20:59:38.577Z,6.23
2018-05-23T21:02:06.128Z,6.97
2018-05-23T21:04:34.401Z,7.13
2018-05-23T21:07:01.902Z,6.57
2018-05-23T21:09:29.381Z,7.10
2018-05-23T21:11:56.854Z,6.93
2018-05-23T21:14:25.117Z,7.00
2018-05-23T21:16:52.689Z,6.23
2018-05-23T21:19:20.972Z,7.17
2018-05-23T21:21:49.229Z,7.03
2018-05-23T21:24:16.733Z,7.30
2018-05-23T21:26:44.285Z,7.30
2018-05-23T21:29:11.766Z,7.47
2018-05-23T21:31:39.261Z,7.27
2018-05-23T21:34:06.825Z,7.60
2018-05-23T21:36:35.066Z,7.47
2018-05-23T21:39:02.561Z,7.70
2018-05-23T21:41:30.834Z,7.57
2018-05-23T21:43:59.110Z,7.80
2018-05-23T21:46:27.350Z,7.63
2018-05-23T21:48:54.826Z,7.47
2018-05-23T21:51:22.407Z,7.53
2018-05-23T21:53:50.657Z,6.70
2018-05-23T21:56:18.270Z,7.70
2018-05-23T21:58:45.745Z,7.33
2018-05-23T22:01:13.221Z,7.43
2018-05-23T22:03:40.719Z,7.47
2018-05-23T22:06:08.953Z,7.17
2018-05-23T22:08:36.449Z,7.10
2018-05-23T22:11:04.696Z,7.43
2018-05-23T22:13:32.173Z,7.83
2018-05-23T22:16:00.441Z,7.13
2018-05-23T22:18:28.686Z,7.17
2018-05-23T22:20:56.181Z,7.57
2018-05-23T22:23:24.421Z,7.13
2018-05-23T22:25:51.897Z,7.70
2018-05-23T22:28:19.469Z,7.53
2018-05-23T22:30:47.713Z,7.57
2018-05-23T22:33:15.214Z,7.33
2018-05-23T22:35:43.452Z,6.93
2018-05-23T22:38:10.933Z,7.70
2018-05-23T22:40:39.209Z,7.30
2018-05-23T22:43:07.482Z,7.77
2018-05-23T22:45:35.761Z,7.77
2018-05-23T22:48:04.003Z,7.23
2018-05-23T22:50:31.497Z,7.10
2018-05-23T22:52:59.878Z,7.07
2018-05-23T22:55:28.124Z,6.57
2018-05-23T22:57:55.620Z,6.73
2018-05-23T23:00:26.961Z,7.03
